createdAt,value
2018-12-30T00:00:57.904Z,1018.83
2018-12-30T00:01:57.900Z,1018.78
2018-12-30T00:02:57.891Z,1018.82
2018-12-30T00:03:57.886Z,1018.89
2018-12-30T00:04:57.880Z,1018.91
2018-12-30T00:05:57.875Z,1018.91
2018-12-30T00:06:57.865Z,1018.93
2018-12-30T00:07:57.860Z,1018.95
2018-12-30T00:08:57.851Z,1018.96
2018-12-30T00:09:57.848Z,1018.96
2018-12-30T00:10:57.839Z,1018.99
2018-12-30T00:11:57.836Z,1019.01
2018-12-30T00:12:57.826Z,1019.05
2018-12-30T00:13:57.821Z,1019.09
2018-12-30T00:14:57.813Z,1019.11
2018-12-30T00:15:57.808Z,1019.04
2018-12-30T00:16:57.799Z,1019.10
2018-12-30T00:17:57.799Z,1019.09
2018-12-30T00:18:57.787Z,1019.12
2018-12-30T00:19:57.783Z,1019.14
2018-12-30T00:20:57.773Z,1019.27
2018-12-30T00:21:57.769Z,1019.20
2018-12-30T00:22:57.761Z,1019.29
2018-12-30T00:23:57.755Z,1019.27
2018-12-30T00:24:57.747Z,1019.27
2018-12-30T00:25:57.744Z,1019.38
2018-12-30T00:26:57.735Z,1019.30
2018-12-30T00:27:57.729Z,1019.28
2018-12-30T00:28:57.720Z,1019.34
2018-12-30T00:29:57.723Z,1019.25
2018-12-30T00:30:57.720Z,1019.35
2018-12-30T00:31:57.702Z,1019.34
2018-12-30T00:32:57.696Z,1019.41
2018-12-30T00:33:57.693Z,1019.40
2018-12-30T00:34:57.684Z,1019.47
2018-12-30T00:35:57.677Z,1019.45
2018-12-30T00:36:57.668Z,1019.38
2018-12-30T00:37:57.667Z,1019.44
2018-12-30T00:38:57.668Z,1019.50
2018-12-30T00:39:57.651Z,1019.41
2018-12-30T00:40:57.643Z,1019.56
2018-12-30T00:41:57.639Z,1019.40
2018-12-30T00:42:57.629Z,1019.67
2018-12-30T00:43:57.624Z,1019.53
2018-12-30T00:44:57.615Z,1019.63
2018-12-30T00:45:57.614Z,1019.62
2018-12-30T00:46:57.609Z,1019.72
2018-12-30T00:47:57.597Z,1019.63
2018-12-30T00:48:57.588Z,1019.62
2018-12-30T00:49:57.586Z,1019.63
2018-12-30T00:50:57.575Z,1019.62
2018-12-30T00:51:57.570Z,1019.66
2018-12-30T00:52:57.562Z,1019.69
2018-12-30T00:53:57.558Z,1019.67
2018-12-30T00:54:57.549Z,1019.74
2018-12-30T00:55:57.544Z,1019.73
2018-12-30T00:56:57.537Z,1019.84
2018-12-30T00:57:57.531Z,1019.89
2018-12-30T00:58:57.523Z,1019.88
2018-12-30T00:59:57.517Z,1019.89
2018-12-30T01:00:57.510Z,1019.96
2018-12-30T01:01:57.505Z,1020.00
2018-12-30T01:02:57.498Z,1019.92
2018-12-30T01:03:57.494Z,1019.94
2018-12-30T01:04:57.483Z,1019.92
2018-12-30T01:05:57.493Z,1019.89
2018-12-30T01:06:57.469Z,1019.86
2018-12-30T01:07:57.489Z,1019.99
2018-12-30T01:08:57.455Z,1020.08
2018-12-30T01:09:57.452Z,1020.08
2018-12-30T01:10:57.443Z,1020.13
2018-12-30T01:11:57.440Z,1020.11
2018-12-30T01:12:58.822Z,1020.11
2018-12-30T01:13:57.428Z,1020.17
2018-12-30T01:14:57.416Z,1020.26
2018-12-30T01:15:57.413Z,1020.21
2018-12-30T01:16:57.403Z,1020.28
2018-12-30T01:17:57.431Z,1020.31
2018-12-30T01:18:57.389Z,1020.31
2018-12-30T01:19:57.385Z,1020.33
2018-12-30T01:20:57.376Z,1020.30
2018-12-30T01:21:57.372Z,1020.44
2018-12-30T01:22:57.363Z,1020.33
2018-12-30T01:23:57.358Z,1020.42
2018-12-30T01:24:57.350Z,1020.48
2018-12-30T01:25:57.346Z,1020.47
2018-12-30T01:26:57.337Z,1020.50
2018-12-30T01:27:57.338Z,1020.58
2018-12-30T01:28:57.324Z,1020.59
2018-12-30T01:29:57.319Z,1020.60
2018-12-30T01:30:57.312Z,1020.56
2018-12-30T01:31:57.307Z,1020.55
2018-12-30T01:32:57.298Z,1020.60
2018-12-30T01:33:57.293Z,1020.61
2018-12-30T01:34:57.285Z,1020.58
2018-12-30T01:35:57.279Z,1020.69
2018-12-30T01:36:57.271Z,1020.60
2018-12-30T01:37:57.267Z,1020.62
2018-12-30T01:38:57.258Z,1020.71
2018-12-30T01:39:57.266Z,1020.66
2018-12-30T01:40:57.245Z,1020.46
2018-12-30T01:41:57.240Z,1020.69
2018-12-30T01:42:57.232Z,1020.66
2018-12-30T01:43:57.227Z,1020.71
2018-12-30T01:44:57.218Z,1020.70
2018-12-30T01:45:57.213Z,1020.74
2018-12-30T01:46:57.208Z,1020.71
2018-12-30T01:47:57.199Z,1020.66
2018-12-30T01:48:57.196Z,1020.72
2018-12-30T01:49:57.436Z,1020.65
2018-12-30T01:50:57.182Z,1020.62
2018-12-30T01:51:57.172Z,1020.71
2018-12-30T01:52:57.168Z,1020.75
2018-12-30T01:53:57.160Z,1020.80
2018-12-30T01:54:57.155Z,1020.80
2018-12-30T01:55:57.147Z,1020.78
2018-12-30T01:56:57.142Z,1020.89
2018-12-30T01:57:57.135Z,1020.82
2018-12-30T01:58:57.130Z,1020.89
2018-12-30T01:59:57.120Z,1020.86
2018-12-30T02:00:57.116Z,1020.86
2018-12-30T02:01:57.107Z,1020.87
2018-12-30T02:02:57.103Z,1020.90
2018-12-30T02:03:57.097Z,1020.92
2018-12-30T02:04:57.091Z,1020.95
2018-12-30T02:05:57.081Z,1021.07
2018-12-30T02:06:57.076Z,1021.03
2018-12-30T02:07:57.066Z,1021.09
2018-12-30T02:08:57.062Z,1021.14
2018-12-30T02:09:57.054Z,1021.06
2018-12-30T02:10:57.053Z,1021.18
2018-12-30T02:11:57.040Z,1021.19
2018-12-30T02:12:57.035Z,1021.14
2018-12-30T02:13:57.030Z,1021.29
2018-12-30T02:14:57.023Z,1021.26
2018-12-30T02:15:57.013Z,1021.37
2018-12-30T02:16:57.009Z,1021.43
2018-12-30T02:17:57.001Z,1021.45
2018-12-30T02:18:56.995Z,1021.43
2018-12-30T02:19:56.986Z,1021.54
2018-12-30T02:20:56.983Z,1021.56
2018-12-30T02:21:56.973Z,1021.52
2018-12-30T02:22:56.970Z,1021.49
2018-12-30T02:23:56.959Z,1021.56
2018-12-30T02:24:56.957Z,1021.57
2018-12-30T02:25:56.946Z,1021.63
2018-12-30T02:26:56.943Z,1021.61
2018-12-30T02:27:56.934Z,1021.68
2018-12-30T02:28:56.928Z,1021.75
2018-12-30T02:29:56.919Z,1021.70
2018-12-30T02:30:56.915Z,1021.78
2018-12-30T02:31:56.907Z,1021.75
2018-12-30T02:32:56.914Z,1021.88
2018-12-30T02:33:56.895Z,1021.82
2018-12-30T02:34:56.889Z,1021.79
2018-12-30T02:35:56.882Z,1021.80
2018-12-30T02:36:56.878Z,1021.70
2018-12-30T02:37:56.866Z,1021.75
2018-12-30T02:38:56.862Z,1021.78
2018-12-30T02:39:56.858Z,1021.76
2018-12-30T02:40:56.862Z,1021.80
2018-12-30T02:41:56.846Z,1021.68
2018-12-30T02:42:56.836Z,1021.76
2018-12-30T02:43:56.827Z,1021.76
2018-12-30T02:44:56.922Z,1021.74
2018-12-30T02:45:56.813Z,1021.75
2018-12-30T02:46:56.809Z,1021.72
2018-12-30T02:47:56.806Z,1021.79
2018-12-30T02:48:56.811Z,1021.82
2018-12-30T02:49:56.787Z,1021.84
2018-12-30T02:50:56.784Z,1021.88
2018-12-30T02:51:56.776Z,1021.92
2018-12-30T02:52:56.769Z,1021.97
2018-12-30T02:53:56.761Z,1021.94
2018-12-30T02:54:56.756Z,1021.94
2018-12-30T02:55:56.747Z,1021.92
2018-12-30T02:56:56.747Z,1021.93
2018-12-30T02:57:56.735Z,1021.93
2018-12-30T02:58:56.731Z,1021.96
2018-12-30T02:59:56.721Z,1021.94
2018-12-30T03:00:56.717Z,1021.97
2018-12-30T03:01:56.709Z,1021.99
2018-12-30T03:02:56.707Z,1022.02
2018-12-30T03:03:56.695Z,1022.06
2018-12-30T03:04:56.691Z,1022.02
2018-12-30T03:05:56.690Z,1021.98
2018-12-30T03:06:56.679Z,1021.97
2018-12-30T03:07:56.671Z,1022.01
2018-12-30T03:08:56.667Z,1022.00
2018-12-30T03:09:56.658Z,1022.08
2018-12-30T03:10:56.654Z,1022.09
2018-12-30T03:11:56.645Z,1022.06
2018-12-30T03:12:56.641Z,1022.10
2018-12-30T03:13:56.636Z,1022.16
2018-12-30T03:14:56.629Z,1022.17
2018-12-30T03:15:56.619Z,1022.24
2018-12-30T03:16:56.617Z,1022.17
2018-12-30T03:17:56.609Z,1022.22
2018-12-30T03:18:56.603Z,1022.25
2018-12-30T03:19:56.897Z,1022.20
2018-12-30T03:20:56.590Z,1022.15
2018-12-30T03:21:59.237Z,1022.14
2018-12-30T03:22:56.577Z,1022.24
2018-12-30T03:23:56.568Z,1022.14
2018-12-30T03:24:56.564Z,1022.24
2018-12-30T03:25:56.556Z,1022.33
2018-12-30T03:26:56.552Z,1022.31
2018-12-30T03:27:56.544Z,1022.31
2018-12-30T03:28:56.538Z,1022.32
2018-12-30T03:29:56.532Z,1022.31
2018-12-30T03:30:56.535Z,1022.30
2018-12-30T03:31:56.518Z,1022.32
2018-12-30T03:32:56.513Z,1022.30
2018-12-30T03:33:56.505Z,1022.33
2018-12-30T03:34:56.499Z,1022.36
2018-12-30T03:35:56.538Z,1022.36
2018-12-30T03:36:56.488Z,1022.37
2018-12-30T03:37:56.480Z,1022.37
2018-12-30T03:38:56.473Z,1022.39
2018-12-30T03:39:56.463Z,1022.40
2018-12-30T03:40:56.459Z,1022.35
2018-12-30T03:41:56.468Z,1022.34
2018-12-30T03:42:56.450Z,1022.36
2018-12-30T03:43:56.438Z,1022.41
2018-12-30T03:44:56.433Z,1022.43
2018-12-30T03:45:56.424Z,1022.43
2018-12-30T03:46:56.421Z,1022.38
2018-12-30T03:47:56.413Z,1022.41
2018-12-30T03:48:56.407Z,1022.34
2018-12-30T03:49:56.700Z,1022.36
2018-12-30T03:50:56.395Z,1022.39
2018-12-30T03:51:56.385Z,1022.42
2018-12-30T03:52:56.382Z,1022.41
2018-12-30T03:53:56.372Z,1022.45
2018-12-30T03:54:56.367Z,1022.45
2018-12-30T03:55:56.357Z,1022.49
2018-12-30T03:56:56.354Z,1022.46
2018-12-30T03:57:56.346Z,1022.51
2018-12-30T03:58:56.342Z,1022.45
2018-12-30T03:59:56.331Z,1022.52
2018-12-30T04:00:56.327Z,1022.54
2018-12-30T04:01:56.318Z,1022.57
2018-12-30T04:02:56.314Z,1022.62
2018-12-30T04:03:56.306Z,1022.66
2018-12-30T04:04:56.301Z,1022.69
2018-12-30T04:05:56.293Z,1022.66
2018-12-30T04:06:56.289Z,1022.70
2018-12-30T04:07:56.279Z,1022.65
2018-12-30T04:08:56.275Z,1022.59
2018-12-30T04:09:56.266Z,1022.66
2018-12-30T04:10:56.263Z,1022.67
2018-12-30T04:11:56.253Z,1022.70
2018-12-30T04:12:56.249Z,1022.64
2018-12-30T04:13:56.239Z,1022.64
2018-12-30T04:14:56.235Z,1022.71
2018-12-30T04:15:56.227Z,1022.75
2018-12-30T04:16:56.223Z,1022.72
2018-12-30T04:17:56.213Z,1022.81
2018-12-30T04:18:56.209Z,1022.79
2018-12-30T04:19:56.500Z,1022.75
2018-12-30T04:20:56.205Z,1022.77
2018-12-30T04:21:56.188Z,1022.83
2018-12-30T04:22:56.183Z,1022.83
2018-12-30T04:23:56.175Z,1022.88
2018-12-30T04:24:56.170Z,1022.86
2018-12-30T04:25:56.162Z,1022.85
2018-12-30T04:26:56.157Z,1022.95
2018-12-30T04:27:56.147Z,1022.91
2018-12-30T04:28:56.143Z,1022.97
2018-12-30T04:29:56.135Z,1022.91
2018-12-30T04:30:56.132Z,1022.96
2018-12-30T04:31:56.123Z,1022.96
2018-12-30T04:32:56.120Z,1022.94
2018-12-30T04:33:56.109Z,1023.01
2018-12-30T04:34:56.105Z,1022.97
2018-12-30T04:35:56.097Z,1022.99
2018-12-30T04:36:56.093Z,1023.06
2018-12-30T04:37:56.085Z,1023.05
2018-12-30T04:38:56.081Z,1023.04
2018-12-30T04:39:56.072Z,1023.05
2018-12-30T04:40:56.066Z,1023.02
2018-12-30T04:41:56.058Z,1023.09
2018-12-30T04:42:56.053Z,1023.07
2018-12-30T04:43:56.045Z,1023.11
2018-12-30T04:44:56.042Z,1023.19
2018-12-30T04:45:56.033Z,1023.21
2018-12-30T04:46:56.029Z,1023.21
2018-12-30T04:47:56.019Z,1023.19
2018-12-30T04:48:56.020Z,1023.18
2018-12-30T04:49:56.006Z,1023.14
2018-12-30T04:50:56.309Z,1023.17
2018-12-30T04:51:56.009Z,1023.20
2018-12-30T04:52:55.991Z,1023.23
2018-12-30T04:53:55.981Z,1023.24
2018-12-30T04:54:55.980Z,1023.28
2018-12-30T04:55:55.968Z,1023.32
2018-12-30T04:56:55.963Z,1023.39
2018-12-30T04:57:55.954Z,1023.31
2018-12-30T04:58:55.954Z,1023.26
2018-12-30T04:59:55.952Z,1023.31
2018-12-30T05:00:55.939Z,1023.34
2018-12-30T05:01:55.930Z,1023.37
2018-12-30T05:02:56.036Z,1023.36
2018-12-30T05:03:55.916Z,1023.33
2018-12-30T05:04:55.916Z,1023.41
2018-12-30T05:05:55.904Z,1023.41
2018-12-30T05:06:55.900Z,1023.45
2018-12-30T05:07:55.891Z,1023.36
2018-12-30T05:08:55.886Z,1023.36
2018-12-30T05:09:55.879Z,1023.33
2018-12-30T05:10:55.875Z,1023.33
2018-12-30T05:11:55.866Z,1023.31
2018-12-30T05:12:55.861Z,1023.31
2018-12-30T05:13:55.853Z,1023.25
2018-12-30T05:14:55.850Z,1023.24
2018-12-30T05:15:55.928Z,1023.22
2018-12-30T05:16:55.836Z,1023.27
2018-12-30T05:17:55.827Z,1023.18
2018-12-30T05:18:55.824Z,1023.07
2018-12-30T05:19:55.814Z,1023.05
2018-12-30T05:20:55.814Z,1023.03
2018-12-30T05:21:55.802Z,1023.14
2018-12-30T05:22:55.801Z,1023.20
2018-12-30T05:23:55.789Z,1023.23
2018-12-30T05:24:55.785Z,1023.21
2018-12-30T05:25:55.778Z,1023.16
2018-12-30T05:26:55.773Z,1023.26
2018-12-30T05:27:55.764Z,1023.38
2018-12-30T05:28:55.760Z,1023.32
2018-12-30T05:29:55.751Z,1023.23
2018-12-30T05:30:55.748Z,1023.32
2018-12-30T05:31:55.739Z,1023.49
2018-12-30T05:32:55.734Z,1023.56
2018-12-30T05:33:55.726Z,1023.44
2018-12-30T05:34:55.722Z,1023.52
2018-12-30T05:35:55.713Z,1023.65
2018-12-30T05:36:55.716Z,1023.66
2018-12-30T05:37:55.701Z,1023.65
2018-12-30T05:38:55.697Z,1023.73
2018-12-30T05:39:55.687Z,1023.74
2018-12-30T05:40:55.684Z,1023.78
2018-12-30T05:41:55.677Z,1023.79
2018-12-30T05:42:55.672Z,1023.72
2018-12-30T05:43:55.662Z,1023.70
2018-12-30T05:44:55.660Z,1023.67
2018-12-30T05:45:55.650Z,1023.75
2018-12-30T05:46:55.649Z,1023.85
2018-12-30T05:47:55.636Z,1023.79
2018-12-30T05:48:55.633Z,1023.81
2018-12-30T05:49:55.630Z,1023.83
2018-12-30T05:50:55.621Z,1023.80
2018-12-30T05:51:55.611Z,1023.79
2018-12-30T05:52:55.607Z,1023.71
2018-12-30T05:53:55.601Z,1023.74
2018-12-30T05:54:55.596Z,1023.89
2018-12-30T05:55:55.886Z,1023.98
2018-12-30T05:56:55.585Z,1023.87
2018-12-30T05:57:55.573Z,1023.74
2018-12-30T05:58:55.570Z,1023.64
2018-12-30T05:59:55.560Z,1023.76
2018-12-30T06:00:55.556Z,1023.77
2018-12-30T06:01:55.550Z,1023.83
2018-12-30T06:02:55.541Z,1023.82
2018-12-30T06:03:55.538Z,1023.86
2018-12-30T06:04:55.528Z,1023.80
2018-12-30T06:05:55.524Z,1023.65
2018-12-30T06:06:55.516Z,1023.73
2018-12-30T06:07:55.511Z,1023.88
2018-12-30T06:08:55.502Z,1023.98
2018-12-30T06:09:55.498Z,1023.93
2018-12-30T06:10:55.493Z,1023.93
2018-12-30T06:11:55.485Z,1023.91
2018-12-30T06:12:55.476Z,1023.92
2018-12-30T06:13:55.476Z,1023.90
2018-12-30T06:14:55.464Z,1023.95
2018-12-30T06:15:55.459Z,1024.05
2018-12-30T06:16:55.450Z,1024.07
2018-12-30T06:17:55.446Z,1024.05
2018-12-30T06:18:55.438Z,1024.07
2018-12-30T06:19:55.432Z,1024.12
2018-12-30T06:20:55.426Z,1024.17
2018-12-30T06:21:55.419Z,1024.11
2018-12-30T06:22:55.418Z,1024.03
2018-12-30T06:23:55.406Z,1024.11
2018-12-30T06:24:55.398Z,1024.18
2018-12-30T06:25:55.694Z,1024.13
2018-12-30T06:26:55.385Z,1024.08
2018-12-30T06:27:55.382Z,1024.15
2018-12-30T06:28:55.372Z,1024.22
2018-12-30T06:29:55.368Z,1024.22
2018-12-30T06:30:55.359Z,1024.14
2018-12-30T06:31:55.354Z,1024.20
2018-12-30T06:32:55.346Z,1024.22
2018-12-30T06:33:55.348Z,1024.20
2018-12-30T06:34:55.333Z,1024.27
2018-12-30T06:35:55.331Z,1024.31
2018-12-30T06:36:55.319Z,1024.31
2018-12-30T06:37:55.315Z,1024.33
2018-12-30T06:38:55.306Z,1024.36
2018-12-30T06:39:55.301Z,1024.33
2018-12-30T06:40:55.292Z,1024.41
2018-12-30T06:41:55.288Z,1024.38
2018-12-30T06:42:55.279Z,1024.42
2018-12-30T06:43:55.274Z,1024.51
2018-12-30T06:44:55.266Z,1024.53
2018-12-30T06:45:55.261Z,1024.51
2018-12-30T06:46:55.252Z,1024.54
2018-12-30T06:47:55.250Z,1024.60
2018-12-30T06:48:55.240Z,1024.60
2018-12-30T06:49:55.234Z,1024.59
2018-12-30T06:50:55.232Z,1024.58
2018-12-30T06:51:55.234Z,1024.62
2018-12-30T06:52:57.703Z,1024.59
2018-12-30T06:53:55.210Z,1024.53
2018-12-30T06:54:55.208Z,1024.56
2018-12-30T06:55:55.494Z,1024.61
2018-12-30T06:56:55.186Z,1024.56
2018-12-30T06:57:55.180Z,1024.58
2018-12-30T06:58:55.175Z,1024.60
2018-12-30T06:59:55.169Z,1024.55
2018-12-30T07:00:55.158Z,1024.55
2018-12-30T07:01:55.155Z,1024.55
2018-12-30T07:02:55.151Z,1024.51
2018-12-30T07:03:55.154Z,1024.51
2018-12-30T07:04:55.130Z,1024.52
2018-12-30T07:05:55.128Z,1024.49
2018-12-30T07:06:55.117Z,1024.51
2018-12-30T07:07:55.112Z,1024.52
2018-12-30T07:08:55.104Z,1024.57
2018-12-30T07:09:55.099Z,1024.60
2018-12-30T07:10:55.097Z,1024.59
2018-12-30T07:11:55.100Z,1024.57
2018-12-30T07:12:55.075Z,1024.49
2018-12-30T07:13:55.074Z,1024.51
2018-12-30T07:14:55.062Z,1024.57
2018-12-30T07:15:55.057Z,1024.58
2018-12-30T07:16:55.048Z,1024.58
2018-12-30T07:17:55.044Z,1024.57
2018-12-30T07:18:55.038Z,1024.61
2018-12-30T07:19:55.029Z,1024.60
2018-12-30T07:20:55.019Z,1024.59
2018-12-30T07:21:55.015Z,1024.62
2018-12-30T07:22:55.006Z,1024.63
2018-12-30T07:23:55.000Z,1024.60
2018-12-30T07:24:54.993Z,1024.53
2018-12-30T07:25:54.987Z,1024.56
2018-12-30T07:26:54.978Z,1024.50
2018-12-30T07:27:54.972Z,1024.53
2018-12-30T07:28:54.964Z,1024.54
2018-12-30T07:29:54.959Z,1024.52
2018-12-30T07:30:54.950Z,1024.53
2018-12-30T07:31:54.944Z,1024.54
2018-12-30T07:32:54.936Z,1024.52
2018-12-30T07:33:54.937Z,1024.54
2018-12-30T07:34:54.922Z,1024.48
2018-12-30T07:35:54.916Z,1024.47
2018-12-30T07:36:54.907Z,1024.45
2018-12-30T07:37:54.905Z,1024.47
2018-12-30T07:38:54.894Z,1024.42
2018-12-30T07:39:54.888Z,1024.50
2018-12-30T07:40:54.879Z,1024.49
2018-12-30T07:41:54.876Z,1024.50
2018-12-30T07:42:54.865Z,1024.47
2018-12-30T07:43:54.861Z,1024.56
2018-12-30T07:44:54.851Z,1024.55
2018-12-30T07:45:54.846Z,1024.67
2018-12-30T07:46:54.837Z,1024.68
2018-12-30T07:47:54.831Z,1024.69
2018-12-30T07:48:54.822Z,1024.73
2018-12-30T07:49:54.819Z,1024.70
2018-12-30T07:50:54.808Z,1024.77
2018-12-30T07:51:54.803Z,1024.70
2018-12-30T07:52:54.794Z,1024.71
2018-12-30T07:53:54.790Z,1024.74
2018-12-30T07:54:54.780Z,1024.73
2018-12-30T07:55:54.775Z,1024.75
2018-12-30T07:56:54.765Z,1024.77
2018-12-30T07:57:54.763Z,1024.74
2018-12-30T07:58:54.752Z,1024.77
2018-12-30T07:59:56.056Z,1024.69
2018-12-30T08:00:54.737Z,1024.69
2018-12-30T08:01:54.732Z,1024.72
2018-12-30T08:02:54.724Z,1024.77
2018-12-30T08:03:54.718Z,1024.77
2018-12-30T08:04:54.709Z,1024.76
2018-12-30T08:05:54.706Z,1024.69
2018-12-30T08:06:54.695Z,1024.71
2018-12-30T08:07:54.692Z,1024.71
2018-12-30T08:08:54.680Z,1024.70
2018-12-30T08:09:54.679Z,1024.67
2018-12-30T08:10:54.671Z,1024.69
2018-12-30T08:11:54.661Z,1024.66
2018-12-30T08:12:54.652Z,1024.67
2018-12-30T08:13:54.648Z,1024.72
2018-12-30T08:14:54.649Z,1024.74
2018-12-30T08:15:54.637Z,1024.76
2018-12-30T08:16:54.625Z,1024.76
2018-12-30T08:17:54.620Z,1024.74
2018-12-30T08:18:54.610Z,1024.68
2018-12-30T08:19:54.605Z,1024.72
2018-12-30T08:20:54.597Z,1024.70
2018-12-30T08:21:54.592Z,1024.68
2018-12-30T08:22:54.584Z,1024.67
2018-12-30T08:23:54.580Z,1024.70
2018-12-30T08:24:54.570Z,1024.69
2018-12-30T08:25:54.564Z,1024.75
2018-12-30T08:26:54.556Z,1024.79
2018-12-30T08:27:54.552Z,1024.79
2018-12-30T08:28:54.542Z,1024.76
2018-12-30T08:29:54.539Z,1024.83
2018-12-30T08:30:54.528Z,1024.82
2018-12-30T08:31:54.528Z,1024.86
2018-12-30T08:32:54.514Z,1024.93
2018-12-30T08:33:54.511Z,1024.94
2018-12-30T08:34:54.502Z,1024.92
2018-12-30T08:35:54.496Z,1024.94
2018-12-30T08:36:54.488Z,1024.92
2018-12-30T08:37:54.485Z,1024.88
2018-12-30T08:38:54.475Z,1024.87
2018-12-30T08:39:54.485Z,1024.90
2018-12-30T08:40:54.465Z,1024.89
2018-12-30T08:41:54.457Z,1024.87
2018-12-30T08:42:54.448Z,1024.91
2018-12-30T08:43:54.744Z,1024.94
2018-12-30T08:44:54.502Z,1024.92
2018-12-30T08:45:54.431Z,1024.94
2018-12-30T08:46:54.430Z,1024.93
2018-12-30T08:47:54.417Z,1024.90
2018-12-30T08:48:54.408Z,1024.91
2018-12-30T08:49:54.404Z,1024.89
2018-12-30T08:50:54.395Z,1024.95
2018-12-30T08:51:54.390Z,1024.90
2018-12-30T08:52:54.381Z,1024.90
2018-12-30T08:53:54.379Z,1024.92
2018-12-30T08:54:54.371Z,1024.85
2018-12-30T08:55:54.365Z,1024.81
2018-12-30T08:56:54.356Z,1024.83
2018-12-30T08:57:54.351Z,1024.83
2018-12-30T08:58:54.344Z,1024.82
2018-12-30T08:59:54.338Z,1024.85
2018-12-30T09:00:54.332Z,1024.79
2018-12-30T09:01:54.328Z,1024.83
2018-12-30T09:02:54.317Z,1024.84
2018-12-30T09:03:54.312Z,1024.83
2018-12-30T09:04:54.304Z,1024.82
2018-12-30T09:05:54.301Z,1024.77
2018-12-30T09:06:54.293Z,1024.74
2018-12-30T09:07:54.296Z,1024.77
2018-12-30T09:08:54.296Z,1024.75
2018-12-30T09:09:54.278Z,1024.65
2018-12-30T09:10:55.290Z,1024.71
2018-12-30T09:11:54.273Z,1024.78
2018-12-30T09:12:54.268Z,1024.74
2018-12-30T09:13:54.550Z,1024.71
2018-12-30T09:14:54.243Z,1024.71
2018-12-30T09:15:54.242Z,1024.77
2018-12-30T09:16:54.242Z,1024.84
2018-12-30T09:17:54.250Z,1024.85
2018-12-30T09:18:54.217Z,1024.83
2018-12-30T09:19:54.224Z,1024.86
2018-12-30T09:20:54.215Z,1024.88
2018-12-30T09:21:54.201Z,1024.85
2018-12-30T09:22:54.193Z,1024.81
2018-12-30T09:23:54.195Z,1024.74
2018-12-30T09:24:54.222Z,1024.79
2018-12-30T09:25:54.177Z,1024.84
2018-12-30T09:26:54.169Z,1024.89
2018-12-30T09:27:54.163Z,1024.95
2018-12-30T09:28:54.155Z,1024.95
2018-12-30T09:29:54.167Z,1025.01
2018-12-30T09:30:54.144Z,1025.03
2018-12-30T09:31:54.139Z,1024.98
2018-12-30T09:32:54.132Z,1024.98
2018-12-30T09:33:54.127Z,1024.99
2018-12-30T09:34:54.129Z,1024.98
2018-12-30T09:35:54.115Z,1024.96
2018-12-30T09:36:54.108Z,1024.91
2018-12-30T09:37:54.116Z,1024.97
2018-12-30T09:38:54.095Z,1024.99
2018-12-30T09:39:54.091Z,1025.02
2018-12-30T09:40:54.083Z,1025.04
2018-12-30T09:41:54.083Z,1025.07
2018-12-30T09:42:54.071Z,1025.11
2018-12-30T09:43:54.070Z,1025.11
2018-12-30T09:44:54.363Z,1025.12
2018-12-30T09:45:54.065Z,1025.15
2018-12-30T09:46:54.047Z,1025.09
2018-12-30T09:47:54.042Z,1025.10
2018-12-30T09:48:54.035Z,1025.12
2018-12-30T09:49:54.031Z,1025.10
2018-12-30T09:50:54.024Z,1025.19
2018-12-30T09:51:54.019Z,1025.23
2018-12-30T09:52:54.012Z,1025.29
2018-12-30T09:53:54.007Z,1025.29
2018-12-30T09:54:54.001Z,1025.37
2018-12-30T09:55:53.995Z,1025.39
2018-12-30T09:56:53.987Z,1025.40
2018-12-30T09:57:53.989Z,1025.40
2018-12-30T09:58:53.975Z,1025.41
2018-12-30T09:59:53.971Z,1025.43
2018-12-30T10:00:53.966Z,1025.39
2018-12-30T10:01:53.976Z,1025.40
2018-12-30T10:02:53.951Z,1025.40
2018-12-30T10:03:53.948Z,1025.42
2018-12-30T10:04:53.940Z,1025.37
2018-12-30T10:05:53.936Z,1025.37
2018-12-30T10:06:53.927Z,1025.39
2018-12-30T10:07:53.923Z,1025.36
2018-12-30T10:08:53.921Z,1025.35
2018-12-30T10:09:53.915Z,1025.34
2018-12-30T10:10:53.904Z,1025.31
2018-12-30T10:11:53.912Z,1025.31
2018-12-30T10:12:53.895Z,1025.32
2018-12-30T10:13:53.887Z,1025.32
2018-12-30T10:14:53.883Z,1025.34
2018-12-30T10:15:53.884Z,1025.31
2018-12-30T10:16:53.871Z,1025.35
2018-12-30T10:17:53.876Z,1025.33
2018-12-30T10:18:53.858Z,1025.38
2018-12-30T10:19:53.850Z,1025.40
2018-12-30T10:20:53.847Z,1025.37
2018-12-30T10:21:53.863Z,1025.36
2018-12-30T10:22:58.788Z,1025.36
2018-12-30T10:23:53.834Z,1025.34
2018-12-30T10:24:53.834Z,1025.31
2018-12-30T10:25:53.813Z,1025.30
2018-12-30T10:26:53.812Z,1025.26
2018-12-30T10:27:53.800Z,1025.26
2018-12-30T10:28:53.797Z,1025.20
2018-12-30T10:29:53.789Z,1025.23
2018-12-30T10:30:53.788Z,1025.26
2018-12-30T10:31:53.853Z,1025.20
2018-12-30T10:32:53.774Z,1025.22
2018-12-30T10:33:53.782Z,1025.22
2018-12-30T10:34:53.779Z,1025.23
2018-12-30T10:35:53.769Z,1025.22
2018-12-30T10:36:53.749Z,1025.26
2018-12-30T10:37:53.742Z,1025.21
2018-12-30T10:38:53.739Z,1025.18
2018-12-30T10:39:53.729Z,1025.17
2018-12-30T10:40:53.732Z,1025.17
2018-12-30T10:41:53.730Z,1025.23
2018-12-30T10:42:53.733Z,1025.23
2018-12-30T10:43:53.706Z,1025.29
2018-12-30T10:44:53.707Z,1025.29
2018-12-30T10:45:53.695Z,1025.29
2018-12-30T10:46:53.691Z,1025.28
2018-12-30T10:47:53.682Z,1025.28
2018-12-30T10:48:53.679Z,1025.24
2018-12-30T10:49:53.972Z,1025.18
2018-12-30T10:50:53.668Z,1025.20
2018-12-30T10:51:53.666Z,1025.15
2018-12-30T10:52:53.657Z,1025.09
2018-12-30T10:54:00.505Z,1025.09
2018-12-30T10:54:53.647Z,1025.09
2018-12-30T10:55:53.637Z,1025.10
2018-12-30T10:56:53.643Z,1025.12
2018-12-30T10:57:53.626Z,1025.13
2018-12-30T10:58:53.632Z,1025.14
2018-12-30T10:59:53.614Z,1025.20
2018-12-30T11:00:53.628Z,1025.20
2018-12-30T11:01:53.603Z,1025.21
2018-12-30T11:02:53.600Z,1025.22
2018-12-30T11:03:53.591Z,1025.25
2018-12-30T11:04:53.588Z,1025.20
2018-12-30T11:05:53.580Z,1025.21
2018-12-30T11:06:53.576Z,1025.24
2018-12-30T11:07:53.576Z,1025.21
2018-12-30T11:08:53.579Z,1025.21
2018-12-30T11:09:53.571Z,1025.14
2018-12-30T11:10:53.569Z,1025.15
2018-12-30T11:11:53.544Z,1025.19
2018-12-30T11:12:53.543Z,1025.23
2018-12-30T11:13:53.533Z,1025.17
2018-12-30T11:14:53.536Z,1025.18
2018-12-30T11:15:53.536Z,1025.15
2018-12-30T11:16:53.522Z,1025.15
2018-12-30T11:17:53.511Z,1025.19
2018-12-30T11:18:53.507Z,1025.22
2018-12-30T11:19:53.499Z,1025.22
2018-12-30T11:20:53.495Z,1025.22
2018-12-30T11:21:53.487Z,1025.22
2018-12-30T11:22:53.484Z,1025.21
2018-12-30T11:23:53.476Z,1025.16
2018-12-30T11:24:53.474Z,1025.19
2018-12-30T11:25:53.468Z,1025.18
2018-12-30T11:26:53.462Z,1025.07
2018-12-30T11:27:53.453Z,1025.09
2018-12-30T11:28:53.453Z,1025.04
2018-12-30T11:29:53.443Z,1025.07
2018-12-30T11:30:53.454Z,1025.08
2018-12-30T11:31:53.440Z,1025.10
2018-12-30T11:32:53.426Z,1025.04
2018-12-30T11:33:53.420Z,1025.05
2018-12-30T11:34:53.425Z,1025.09
2018-12-30T11:35:53.422Z,1025.07
2018-12-30T11:36:53.402Z,1025.07
2018-12-30T11:37:53.649Z,1025.05
2018-12-30T11:38:53.396Z,1025.06
2018-12-30T11:39:53.397Z,1025.07
2018-12-30T11:40:53.387Z,1025.07
2018-12-30T11:41:54.830Z,1025.03
2018-12-30T11:42:53.367Z,1025.03
2018-12-30T11:43:53.358Z,1024.97
2018-12-30T11:44:53.354Z,1024.93
2018-12-30T11:45:53.347Z,1024.93
2018-12-30T11:46:53.343Z,1025.00
2018-12-30T11:47:53.334Z,1024.97
2018-12-30T11:48:53.330Z,1024.90
2018-12-30T11:49:53.330Z,1024.92
2018-12-30T11:50:53.319Z,1024.90
2018-12-30T11:51:53.310Z,1024.84
2018-12-30T11:52:53.307Z,1024.84
2018-12-30T11:53:53.299Z,1024.85
2018-12-30T11:54:53.313Z,1024.87
2018-12-30T11:55:53.288Z,1024.85
2018-12-30T11:56:53.286Z,1024.85
2018-12-30T11:57:53.275Z,1024.85
2018-12-30T11:58:53.272Z,1024.80
2018-12-30T11:59:53.264Z,1024.84
2018-12-30T12:00:53.260Z,1024.79
2018-12-30T12:01:53.252Z,1024.85
2018-12-30T12:02:53.248Z,1024.84
2018-12-30T12:03:53.250Z,1024.77
2018-12-30T12:04:53.238Z,1024.78
2018-12-30T12:05:53.233Z,1024.75